createdAt,value
2019-01-19T00:00:24.048Z,0.20
2019-01-19T00:03:34.116Z,0.00
2019-01-19T00:06:27.139Z,0.10
2019-01-19T00:09:29.290Z,0.10
2019-01-19T00:12:20.638Z,0.00
2019-01-19T00:15:01.203Z,0.00
2019-01-19T00:18:01.910Z,0.00
2019-01-19T00:21:00.442Z,-0.10
2019-01-19T00:24:06.468Z,-0.10
2019-01-19T00:27:13.920Z,-0.20
2019-01-19T00:30:25.625Z,-0.20
2019-01-19T00:33:17.984Z,-0.10
2019-01-19T00:36:11.579Z,-0.10
2019-01-19T00:39:28.066Z,0.00
2019-01-19T00:42:21.428Z,0.00
2019-01-19T00:45:18.143Z,-0.10
2019-01-19T00:48:20.927Z,-0.10
2019-01-19T00:51:23.585Z,-0.20
2019-01-19T00:54:01.518Z,-0.10
2019-01-19T00:56:44.327Z,-0.20
2019-01-19T00:59:36.059Z,-0.10
2019-01-19T01:02:58.860Z,-0.20
2019-01-19T01:05:48.823Z,-0.20
2019-01-19T01:09:02.249Z,-0.20
2019-01-19T01:11:44.769Z,-0.20
2019-01-19T01:15:07.193Z,-0.10
2019-01-19T01:18:11.867Z,-0.20
2019-01-19T01:21:09.480Z,-0.30
2019-01-19T01:24:08.840Z,-0.40
2019-01-19T01:27:08.152Z,-0.50
2019-01-19T01:30:33.929Z,-0.50
2019-01-19T01:34:05.423Z,-0.50
2019-01-19T01:36:58.747Z,-0.50
2019-01-19T01:40:24.386Z,-0.50
2019-01-19T01:43:40.700Z,-0.40
2019-01-19T01:47:05.023Z,-0.40
2019-01-19T01:49:49.048Z,-0.40
2019-01-19T01:53:17.453Z,-0.50
2019-01-19T01:55:51.427Z,-0.60
2019-01-19T01:59:16.935Z,-0.50
2019-01-19T02:02:12.792Z,-0.50
2019-01-19T02:05:24.160Z,-0.60
2019-01-19T02:08:14.940Z,-0.60
2019-01-19T02:11:11.317Z,-0.50
2019-01-19T02:14:01.520Z,-0.60
2019-01-19T02:17:33.215Z,-0.60
2019-01-19T02:20:52.544Z,-0.60
2019-01-19T02:23:53.064Z,-0.60
2019-01-19T02:27:13.542Z,-0.60
2019-01-19T02:29:50.829Z,-0.60
2019-01-19T02:33:02.777Z,-0.60
2019-01-19T02:35:53.198Z,-0.70
2019-01-19T02:38:35.493Z,-0.70
2019-01-19T02:41:34.352Z,-0.60
2019-01-19T02:44:56.818Z,-0.60
2019-01-19T02:47:41.641Z,-0.80
2019-01-19T02:50:40.904Z,-0.70
2019-01-19T02:54:00.310Z,-0.80
2019-01-19T02:57:07.918Z,-0.80
2019-01-19T03:00:03.387Z,-0.80
2019-01-19T03:03:12.311Z,-0.80
2019-01-19T03:06:06.722Z,-0.90
2019-01-19T03:09:08.167Z,-0.90
2019-01-19T03:12:09.612Z,-0.90
2019-01-19T03:15:38.312Z,-1.00
2019-01-19T03:18:48.456Z,-0.90
2019-01-19T03:21:57.764Z,-1.00
2019-01-19T03:25:06.848Z,-1.00
2019-01-19T03:28:00.941Z,-1.10
2019-01-19T03:31:13.218Z,-1.00
2019-01-19T03:34:24.283Z,-1.10
2019-01-19T03:37:40.385Z,-1.20
2019-01-19T03:40:59.552Z,-1.00
2019-01-19T03:44:01.933Z,-1.10
2019-01-19T03:47:07.501Z,-1.20
2019-01-19T03:50:13.717Z,-1.10
2019-01-19T03:53:45.953Z,-1.10
2019-01-19T03:56:27.823Z,-1.00
2019-01-19T03:59:21.252Z,-1.10
2019-01-19T04:02:31.068Z,-1.20
2019-01-19T04:05:40.176Z,-1.20
2019-01-19T04:08:53.688Z,-1.20
2019-01-19T04:12:06.061Z,-1.30
2019-01-19T04:15:13.272Z,-1.30
2019-01-19T04:18:16.647Z,-1.20
2019-01-19T04:21:16.021Z,-1.30
2019-01-19T04:23:50.487Z,-1.30
2019-01-19T04:26:33.596Z,-1.30
2019-01-19T04:29:02.874Z,-1.40
2019-01-19T04:31:32.089Z,-1.40
2019-01-19T04:34:01.849Z,-1.40
2019-01-19T04:36:31.580Z,-1.40
2019-01-19T04:39:02.454Z,-1.30
2019-01-19T04:41:31.646Z,-1.30
2019-01-19T04:44:00.855Z,-1.40
2019-01-19T04:46:30.050Z,-1.40
2019-01-19T04:49:00.838Z,-1.30
2019-01-19T04:51:30.159Z,-1.30
2019-01-19T04:54:00.509Z,-1.30
2019-01-19T04:56:29.700Z,-1.30
2019-01-19T04:58:58.927Z,-1.40
2019-01-19T05:01:28.094Z,-1.40
2019-01-19T05:03:57.318Z,-1.30
2019-01-19T05:06:30.521Z,-1.30
2019-01-19T05:09:00.052Z,-1.30
2019-01-19T05:11:29.248Z,-1.50
2019-01-19T05:13:58.512Z,-1.60
2019-01-19T05:16:27.952Z,-1.50
2019-01-19T05:18:57.091Z,-1.60
2019-01-19T05:21:26.537Z,-1.50
2019-01-19T05:23:56.216Z,-1.60
2019-01-19T05:26:26.633Z,-1.60
2019-01-19T05:28:55.808Z,-1.60
2019-01-19T05:31:28.293Z,-1.50
2019-01-19T05:33:57.567Z,-1.50
2019-01-19T05:36:28.608Z,-1.50
2019-01-19T05:38:57.810Z,-1.50
2019-01-19T05:41:27.296Z,-1.50
2019-01-19T05:43:56.481Z,-1.60
2019-01-19T05:46:26.777Z,-1.70
2019-01-19T05:48:55.961Z,-1.60
2019-01-19T05:51:26.681Z,-1.60
2019-01-19T05:53:55.864Z,-1.60
2019-01-19T05:56:26.860Z,-1.60
2019-01-19T05:58:56.036Z,-1.70
2019-01-19T06:01:25.936Z,-1.70
2019-01-19T06:03:55.135Z,-1.60
2019-01-19T06:06:24.719Z,-1.60
2019-01-19T06:08:54.085Z,-1.60
2019-01-19T06:11:23.220Z,-1.60
2019-01-19T06:13:52.432Z,-1.70
2019-01-19T06:16:21.599Z,-1.70
2019-01-19T06:18:51.421Z,-1.70
2019-01-19T06:21:25.753Z,-1.90
2019-01-19T06:23:54.907Z,-1.90
2019-01-19T06:26:24.122Z,-1.90
2019-01-19T06:28:53.449Z,-2.00
2019-01-19T06:31:22.630Z,-2.00
2019-01-19T06:33:51.893Z,-2.00
2019-01-19T06:36:21.120Z,-2.00
2019-01-19T06:38:50.288Z,-1.90
2019-01-19T06:41:19.456Z,-2.10
2019-01-19T06:43:48.647Z,-2.10
2019-01-19T06:46:17.836Z,-2.20
2019-01-19T06:48:47.068Z,-2.00
2019-01-19T06:51:18.005Z,-2.10
2019-01-19T06:53:48.130Z,-2.10
2019-01-19T06:56:17.354Z,-1.90
2019-01-19T06:58:46.612Z,-1.90
2019-01-19T07:01:15.865Z,-1.80
2019-01-19T07:03:45.056Z,-1.80
2019-01-19T07:06:14.273Z,-1.80
2019-01-19T07:08:43.544Z,-1.90
2019-01-19T07:11:12.780Z,-2.00
2019-01-19T07:13:41.989Z,-2.00
2019-01-19T07:16:11.235Z,-2.00
2019-01-19T07:18:40.441Z,-1.90
2019-01-19T07:21:09.626Z,-1.90
2019-01-19T07:23:41.967Z,-1.80
2019-01-19T07:26:11.124Z,-1.70
2019-01-19T07:28:40.496Z,-1.90
2019-01-19T07:31:09.647Z,-1.90
2019-01-19T07:33:38.962Z,-1.90
2019-01-19T07:36:08.151Z,-1.90
2019-01-19T07:38:37.430Z,-1.90
2019-01-19T07:41:06.627Z,-1.90
2019-01-19T07:43:36.005Z,-1.90
2019-01-19T07:46:06.663Z,-2.00
2019-01-19T07:48:37.067Z,-1.90
2019-01-19T07:51:06.286Z,-1.70
2019-01-19T07:53:35.451Z,-1.70
2019-01-19T07:56:04.701Z,-1.70
2019-01-19T07:58:33.980Z,-1.70
2019-01-19T08:01:03.178Z,-1.70
2019-01-19T08:03:32.360Z,-1.80
2019-01-19T08:06:01.620Z,-1.60
2019-01-19T08:08:30.977Z,-1.60
2019-01-19T08:11:00.220Z,-1.70
2019-01-19T08:13:32.331Z,-1.60
2019-01-19T08:16:01.625Z,-1.60
2019-01-19T08:18:32.695Z,-1.70
2019-01-19T08:21:01.942Z,-1.50
2019-01-19T08:23:31.339Z,-1.60
2019-01-19T08:26:00.541Z,-1.50
2019-01-19T08:28:30.012Z,-1.50
2019-01-19T08:30:59.200Z,-1.50
2019-01-19T08:33:28.454Z,-1.60
2019-01-19T08:35:57.747Z,-1.40
2019-01-19T08:38:28.512Z,-1.40
2019-01-19T08:40:57.753Z,-1.30
2019-01-19T08:43:46.192Z,-1.30
2019-01-19T08:46:15.475Z,-1.40
2019-01-19T08:48:44.934Z,-1.40
2019-01-19T08:51:14.314Z,-1.60
2019-01-19T08:53:43.856Z,-1.40
2019-01-19T08:56:13.220Z,-1.40
2019-01-19T08:58:43.646Z,-1.40
2019-01-19T09:01:13.030Z,-1.40
2019-01-19T09:03:42.445Z,-1.30
2019-01-19T09:06:11.710Z,-1.30
2019-01-19T09:08:40.894Z,-1.20
2019-01-19T09:11:10.215Z,-1.20
2019-01-19T09:13:39.443Z,-1.10
2019-01-19T09:16:12.147Z,-1.10
2019-01-19T09:18:42.418Z,-1.00
2019-01-19T09:21:11.587Z,-1.10
2019-01-19T09:24:06.234Z,-1.00
2019-01-19T09:26:35.572Z,-0.90
2019-01-19T09:29:04.826Z,-1.10
2019-01-19T09:31:33.980Z,-0.90
2019-01-19T09:34:03.380Z,-0.80
2019-01-19T09:36:33.868Z,-0.60
2019-01-19T09:39:04.452Z,-0.70
2019-01-19T09:41:33.590Z,-0.50
2019-01-19T09:44:03.980Z,-0.50
2019-01-19T09:46:35.893Z,-0.50
2019-01-19T09:49:05.481Z,-0.50
2019-01-19T09:51:34.708Z,-0.50
2019-01-19T09:54:04.233Z,-0.40
2019-01-19T09:56:33.881Z,-0.40
2019-01-19T09:59:03.142Z,-0.50
2019-01-19T10:01:33.913Z,-0.50
2019-01-19T10:04:03.235Z,-0.40
2019-01-19T10:06:34.182Z,-0.30
2019-01-19T10:09:05.767Z,-0.10
2019-01-19T10:11:36.576Z,0.00
2019-01-19T10:14:06.959Z,0.00
2019-01-19T10:16:36.403Z,0.00
2019-01-19T10:19:05.772Z,0.00
2019-01-19T10:21:35.676Z,0.00
2019-01-19T10:24:05.013Z,0.10
2019-01-19T10:26:34.476Z,0.00
2019-01-19T10:29:04.274Z,0.00
2019-01-19T10:31:38.389Z,0.10
2019-01-19T10:34:07.701Z,0.30
2019-01-19T10:36:36.984Z,0.20
2019-01-19T10:39:08.740Z,0.30
2019-01-19T10:41:41.032Z,0.30
2019-01-19T10:44:09.076Z,0.30
2019-01-19T10:46:39.991Z,0.20
2019-01-19T10:49:09.208Z,0.40
2019-01-19T10:51:38.515Z,0.50
2019-01-19T10:54:07.813Z,0.50
2019-01-19T10:56:37.065Z,0.40
2019-01-19T10:59:06.320Z,0.30
2019-01-19T11:01:35.666Z,0.50
2019-01-19T11:04:05.134Z,0.50
2019-01-19T11:06:35.436Z,0.50
2019-01-19T11:09:06.207Z,0.50
2019-01-19T11:11:35.691Z,0.50
2019-01-19T11:14:05.288Z,0.40
2019-01-19T11:16:34.561Z,0.50
2019-01-19T11:19:03.931Z,0.40
2019-01-19T11:21:35.622Z,0.50
2019-01-19T11:24:04.857Z,0.60
2019-01-19T11:26:35.551Z,0.60
2019-01-19T11:29:05.043Z,0.60
2019-01-19T11:31:34.251Z,0.60
2019-01-19T11:34:03.529Z,0.50
2019-01-19T11:36:32.821Z,0.50
2019-01-19T11:39:02.204Z,0.50
2019-01-19T11:41:31.369Z,0.60
2019-01-19T11:44:00.529Z,0.60
2019-01-19T11:46:29.842Z,0.50
2019-01-19T11:48:59.126Z,0.40
2019-01-19T11:51:28.483Z,0.40
2019-01-19T11:53:57.811Z,0.30
2019-01-19T11:56:27.093Z,0.30
2019-01-19T11:58:56.391Z,0.40
2019-01-19T12:01:25.692Z,0.40
2019-01-19T12:03:55.069Z,0.50
2019-01-19T12:06:24.225Z,0.50
2019-01-19T12:08:53.439Z,0.50
2019-01-19T12:11:22.720Z,0.50
2019-01-19T12:13:52.035Z,0.50
2019-01-19T12:16:21.302Z,0.50
2019-01-19T12:18:50.470Z,0.40
2019-01-19T12:21:19.705Z,0.40
2019-01-19T12:23:48.984Z,0.50
2019-01-19T12:26:18.163Z,0.50
2019-01-19T12:28:47.337Z,0.50
2019-01-19T12:31:16.640Z,0.60
2019-01-19T12:33:45.791Z,0.60
2019-01-19T12:36:15.087Z,0.60
2019-01-19T12:38:44.373Z,0.50
2019-01-19T12:41:13.554Z,0.60
2019-01-19T12:43:43.421Z,0.60
2019-01-19T12:46:12.919Z,0.60
2019-01-19T12:48:42.115Z,0.40
2019-01-19T12:51:13.134Z,0.40
2019-01-19T12:53:42.362Z,0.60
2019-01-19T12:56:11.797Z,0.60
2019-01-19T12:58:41.114Z,0.60
2019-01-19T13:01:10.401Z,0.60
2019-01-19T13:03:39.759Z,0.50
2019-01-19T13:06:49.354Z,0.50
2019-01-19T13:09:23.336Z,0.50
2019-01-19T13:12:48.949Z,0.50
2019-01-19T13:16:01.202Z,0.50
2019-01-19T13:18:59.974Z,0.50
2019-01-19T13:22:25.781Z,0.50
2019-01-19T13:25:19.245Z,0.60
2019-01-19T13:28:28.091Z,0.50
2019-01-19T13:31:49.264Z,0.10
2019-01-19T13:34:54.461Z,0.30
2019-01-19T13:38:11.096Z,0.30
2019-01-19T13:41:32.329Z,0.40
2019-01-19T13:44:23.253Z,0.40
2019-01-19T13:47:23.752Z,0.40
2019-01-19T13:50:33.084Z,0.40
2019-01-19T13:53:58.733Z,0.40
2019-01-19T13:57:24.096Z,0.40
2019-01-19T14:00:18.491Z,0.50
2019-01-19T14:03:13.379Z,0.50
2019-01-19T14:06:23.070Z,0.50
2019-01-19T14:09:35.563Z,0.50
2019-01-19T14:12:41.621Z,0.60
2019-01-19T14:15:38.566Z,0.40
2019-01-19T14:19:13.393Z,0.40
2019-01-19T14:22:10.957Z,0.50
2019-01-19T14:25:20.683Z,0.50
2019-01-19T14:28:43.056Z,0.50
2019-01-19T14:31:52.595Z,0.60
2019-01-19T14:34:45.511Z,0.50
2019-01-19T14:37:36.819Z,0.60
2019-01-19T14:40:35.219Z,0.50
2019-01-19T14:43:44.925Z,0.20
2019-01-19T14:46:35.366Z,0.30
2019-01-19T14:49:13.731Z,0.30
2019-01-19T14:51:54.749Z,0.40
2019-01-19T14:54:50.439Z,0.50
2019-01-19T14:57:44.937Z,0.50
2019-01-19T15:00:45.111Z,0.50
2019-01-19T15:03:23.010Z,0.40
2019-01-19T15:06:17.812Z,0.40
2019-01-19T15:09:19.003Z,0.40
2019-01-19T15:12:09.874Z,0.50
2019-01-19T15:14:58.243Z,0.40
2019-01-19T15:17:53.983Z,0.30
2019-01-19T15:21:22.506Z,0.40
2019-01-19T15:24:20.910Z,0.40
2019-01-19T15:27:15.166Z,0.30
2019-01-19T15:30:15.766Z,0.40
2019-01-19T15:33:04.877Z,0.20
2019-01-19T15:36:17.557Z,0.10
2019-01-19T15:39:17.163Z,0.20
2019-01-19T15:42:29.737Z,0.20
2019-01-19T15:46:10.944Z,0.30
2019-01-19T15:49:12.032Z,0.20
2019-01-19T15:52:13.499Z,0.20
2019-01-19T15:55:08.344Z,0.20
2019-01-19T15:57:56.687Z,0.30
2019-01-19T16:00:52.718Z,0.20
2019-01-19T16:03:50.563Z,0.20
2019-01-19T16:07:05.645Z,0.30
2019-01-19T16:10:27.013Z,0.20
2019-01-19T16:13:30.804Z,0.30
2019-01-19T16:17:08.651Z,0.30
2019-01-19T16:20:21.887Z,0.20
2019-01-19T16:23:18.265Z,0.20
2019-01-19T16:26:26.474Z,0.10
2019-01-19T16:29:23.393Z,0.10
2019-01-19T16:32:22.427Z,0.10
2019-01-19T16:35:22.027Z,0.10
2019-01-19T16:38:31.019Z,0.10
2019-01-19T16:41:44.907Z,0.00
2019-01-19T16:45:09.412Z,-0.10
2019-01-19T16:47:59.624Z,-0.10
2019-01-19T16:50:55.690Z,-0.10
2019-01-19T16:53:30.425Z,-0.10
2019-01-19T16:56:45.465Z,-0.10
2019-01-19T16:59:50.226Z,0.00
2019-01-19T17:02:51.597Z,-0.10
2019-01-19T17:05:59.454Z,-0.10
2019-01-19T17:09:02.744Z,-0.10
2019-01-19T17:12:10.590Z,-0.20
2019-01-19T17:15:18.064Z,-0.30
2019-01-19T17:18:15.990Z,-0.30
2019-01-19T17:21:03.371Z,-0.40
2019-01-19T17:24:13.763Z,-0.30
2019-01-19T17:27:08.805Z,-0.40
2019-01-19T17:30:18.600Z,-0.50
2019-01-19T17:33:21.371Z,-0.60
2019-01-19T17:36:18.339Z,-0.60
2019-01-19T17:39:23.971Z,-0.60
2019-01-19T17:42:15.414Z,-0.70
2019-01-19T17:45:47.198Z,-0.60
2019-01-19T17:48:57.946Z,-0.70
2019-01-19T17:52:23.803Z,-0.70
2019-01-19T17:55:43.090Z,-0.70
2019-01-19T17:58:52.342Z,-0.70
2019-01-19T18:01:30.360Z,-0.70
2019-01-19T18:04:30.073Z,-0.90
2019-01-19T18:07:20.684Z,-1.00
2019-01-19T18:10:39.775Z,-1.00
2019-01-19T18:14:08.584Z,-1.10
2019-01-19T18:17:09.617Z,-1.10
2019-01-19T18:20:19.422Z,-1.10
2019-01-19T18:23:15.660Z,-1.20
2019-01-19T18:26:27.767Z,-1.10
2019-01-19T18:29:07.406Z,-1.00
2019-01-19T18:32:18.654Z,-1.20
2019-01-19T18:35:32.682Z,-1.30
2019-01-19T18:38:55.588Z,-1.50
2019-01-19T18:41:57.110Z,-1.40
2019-01-19T18:45:07.720Z,-1.40
2019-01-19T18:48:33.151Z,-1.40
2019-01-19T18:51:31.097Z,-1.30
2019-01-19T18:54:35.886Z,-1.50
2019-01-19T18:57:43.348Z,-1.50
2019-01-19T19:00:43.601Z,-1.40
2019-01-19T19:03:48.760Z,-1.40
2019-01-19T19:06:57.936Z,-1.50
2019-01-19T19:09:51.000Z,-1.40
2019-01-19T19:12:49.789Z,-1.30
2019-01-19T19:16:24.809Z,-1.50
2019-01-19T19:19:19.584Z,-1.60
2019-01-19T19:22:25.975Z,-1.60
2019-01-19T19:25:48.057Z,-1.70
2019-01-19T19:28:38.760Z,-1.80
2019-01-19T19:31:45.538Z,-1.80
2019-01-19T19:35:02.102Z,-1.90
2019-01-19T19:38:08.390Z,-1.80
2019-01-19T19:41:07.857Z,-1.80
2019-01-19T19:43:59.641Z,-1.80
2019-01-19T19:46:55.887Z,-1.80
2019-01-19T19:49:40.804Z,-1.80
2019-01-19T19:52:11.488Z,-1.80
2019-01-19T19:54:50.774Z,-2.00
2019-01-19T19:57:20.509Z,-1.90
2019-01-19T19:59:49.869Z,-1.90
2019-01-19T20:02:19.167Z,-1.80
2019-01-19T20:04:48.671Z,-1.90
2019-01-19T20:07:18.019Z,-1.80
2019-01-19T20:09:47.318Z,-1.80
2019-01-19T20:12:16.765Z,-1.80
2019-01-19T20:14:46.015Z,-2.00
2019-01-19T20:17:15.639Z,-2.00
2019-01-19T20:19:44.956Z,-2.00
2019-01-19T20:22:14.278Z,-2.00
2019-01-19T20:24:44.555Z,-2.00
2019-01-19T20:27:13.871Z,-1.90
2019-01-19T20:29:45.189Z,-1.90
2019-01-19T20:32:14.185Z,-2.00
2019-01-19T20:34:43.526Z,-1.90
2019-01-19T20:37:12.873Z,-2.00
2019-01-19T20:39:42.201Z,-2.00
2019-01-19T20:42:11.537Z,-2.00
2019-01-19T20:44:40.937Z,-2.00
2019-01-19T20:47:10.295Z,-2.00
2019-01-19T20:49:39.583Z,-2.00
2019-01-19T20:52:09.007Z,-2.00
2019-01-19T20:54:38.308Z,-2.10
2019-01-19T20:57:07.813Z,-2.10
2019-01-19T20:59:37.077Z,-2.10
2019-01-19T21:02:06.337Z,-2.20
2019-01-19T21:04:35.698Z,-2.20
2019-01-19T21:07:05.150Z,-2.40
2019-01-19T21:09:34.358Z,-2.30
2019-01-19T21:12:03.828Z,-2.30
2019-01-19T21:14:33.153Z,-2.30
2019-01-19T21:17:02.528Z,-2.40
2019-01-19T21:19:33.757Z,-2.50
2019-01-19T21:22:03.089Z,-2.40
2019-01-19T21:24:32.380Z,-2.30
2019-01-19T21:27:01.658Z,-2.30
2019-01-19T21:29:31.060Z,-2.40
2019-01-19T21:32:02.721Z,-2.60
2019-01-19T21:34:33.554Z,-2.60
2019-01-19T21:37:02.935Z,-2.60
2019-01-19T21:39:32.182Z,-2.60
2019-01-19T21:42:01.527Z,-2.60
2019-01-19T21:44:30.725Z,-2.80
2019-01-19T21:46:59.992Z,-2.80
2019-01-19T21:49:29.540Z,-2.70
2019-01-19T21:51:58.835Z,-2.60
2019-01-19T21:54:28.099Z,-2.70
2019-01-19T21:56:57.324Z,-2.70
2019-01-19T21:59:26.657Z,-2.70
2019-01-19T22:01:55.907Z,-2.70
2019-01-19T22:04:25.108Z,-2.60
2019-01-19T22:06:54.391Z,-2.70
2019-01-19T22:09:23.617Z,-2.60
2019-01-19T22:11:52.920Z,-2.60
2019-01-19T22:14:22.327Z,-2.60
2019-01-19T22:16:51.620Z,-2.50
2019-01-19T22:19:20.815Z,-2.50
2019-01-19T22:21:50.122Z,-2.60
2019-01-19T22:24:19.452Z,-2.70
2019-01-19T22:26:51.934Z,-2.60
2019-01-19T22:29:21.280Z,-2.60
2019-01-19T22:31:50.659Z,-2.90
2019-01-19T22:34:21.356Z,-2.80
2019-01-19T22:36:50.666Z,-2.80
2019-01-19T22:39:19.929Z,-2.80
2019-01-19T22:41:52.274Z,-2.80
2019-01-19T22:44:21.554Z,-2.90
2019-01-19T22:46:50.756Z,-2.90
2019-01-19T22:49:20.093Z,-2.80
2019-01-19T22:51:51.905Z,-2.90
2019-01-19T22:54:21.178Z,-3.00
2019-01-19T22:56:50.465Z,-3.00
2019-01-19T22:59:19.745Z,-3.00
2019-01-19T23:01:51.857Z,-3.00
2019-01-19T23:04:21.144Z,-3.00
2019-01-19T23:06:50.465Z,-3.20
2019-01-19T23:09:19.793Z,-3.10
2019-01-19T23:11:49.276Z,-3.10
2019-01-19T23:14:18.690Z,-3.00
2019-01-19T23:16:48.040Z,-3.00
2019-01-19T23:19:17.334Z,-3.20
2019-01-19T23:21:49.411Z,-3.30
2019-01-19T23:24:17.536Z,-3.30
2019-01-19T23:26:47.207Z,-3.30
2019-01-19T23:29:16.494Z,-3.30
2019-01-19T23:31:48.142Z,-3.20
2019-01-19T23:34:17.491Z,-3.20
2019-01-19T23:36:46.741Z,-3.30
2019-01-19T23:39:15.905Z,-3.20
2019-01-19T23:41:45.173Z,-3.10
2019-01-19T23:44:14.440Z,-3.30
2019-01-19T23:46:43.689Z,-3.20
2019-01-19T23:49:12.829Z,-3.20
2019-01-19T23:51:42.071Z,-3.10
2019-01-19T23:54:11.350Z,-3.20
2019-01-19T23:56:40.724Z,-3.30
2019-01-19T23:59:09.937Z,-3.30
